createdAt,value
2019-03-25T00:00:31.091Z,100948.27
2019-03-25T00:01:40.339Z,100943.95
2019-03-25T00:02:44.804Z,100943.45
2019-03-25T00:03:50.853Z,100935.59
2019-03-25T00:04:55.316Z,100940.78
2019-03-25T00:05:59.813Z,100941.65
2019-03-25T00:07:04.272Z,100940.35
2019-03-25T00:08:08.737Z,100940.35
2019-03-25T00:09:13.202Z,100935.20
2019-03-25T00:10:17.676Z,100941.75
2019-03-25T00:11:22.158Z,100938.34
2019-03-25T00:12:26.619Z,100931.87
2019-03-25T00:13:31.523Z,100931.07
2019-03-25T00:14:36.364Z,100924.25
2019-03-25T00:15:40.828Z,100921.27
2019-03-25T00:16:45.320Z,100924.73
2019-03-25T00:17:49.785Z,100924.75
2019-03-25T00:18:54.704Z,100922.69
2019-03-25T00:19:59.166Z,100920.11
2019-03-25T00:21:03.712Z,100913.69
2019-03-25T00:22:08.196Z,100921.11
2019-03-25T00:23:12.654Z,100907.28
2019-03-25T00:24:17.127Z,100912.00
2019-03-25T00:25:21.593Z,100915.97
2019-03-25T00:26:26.077Z,100912.08
2019-03-25T00:27:30.541Z,100908.20
2019-03-25T00:28:35.012Z,100905.27
2019-03-25T00:29:39.489Z,100904.45
2019-03-25T00:30:43.955Z,100907.05
2019-03-25T00:31:48.751Z,100906.62
2019-03-25T00:32:53.212Z,100903.20
2019-03-25T00:33:57.695Z,100901.51
2019-03-25T00:35:02.153Z,100905.00
2019-03-25T00:36:07.686Z,100897.22
2019-03-25T00:37:13.311Z,100897.30
2019-03-25T00:38:17.786Z,100896.48
2019-03-25T00:39:22.616Z,100899.06
2019-03-25T00:40:27.084Z,100895.59
2019-03-25T00:41:31.932Z,100895.58
2019-03-25T00:42:36.426Z,100892.57
2019-03-25T00:43:40.895Z,100898.27
2019-03-25T00:44:45.370Z,100892.25
2019-03-25T00:45:49.837Z,100887.94
2019-03-25T00:46:54.303Z,100892.38
2019-03-25T00:47:59.119Z,100884.26
2019-03-25T00:49:03.900Z,100880.41
2019-03-25T00:50:08.701Z,100883.06
2019-03-25T00:51:13.560Z,100881.84
2019-03-25T00:52:18.895Z,100877.94
2019-03-25T00:53:23.681Z,100869.73
2019-03-25T00:54:29.498Z,100871.93
2019-03-25T00:55:34.379Z,100866.77
2019-03-25T00:56:38.844Z,100860.22
2019-03-25T00:57:43.627Z,100854.66
2019-03-25T00:58:48.097Z,100856.84
2019-03-25T00:59:53.021Z,100848.17
2019-03-25T01:00:57.484Z,100848.22
2019-03-25T01:02:02.015Z,100844.80
2019-03-25T01:03:06.586Z,100836.56
2019-03-25T01:04:11.133Z,100834.85
2019-03-25T01:05:16.033Z,100833.14
2019-03-25T01:06:21.531Z,100830.53
2019-03-25T01:07:26.302Z,100832.73
2019-03-25T01:08:31.086Z,100834.45
2019-03-25T01:09:35.551Z,100835.33
2019-03-25T01:10:40.019Z,100826.21
2019-03-25T01:11:49.142Z,100821.90
2019-03-25T01:12:50.944Z,100823.63
2019-03-25T01:13:55.803Z,100814.16
2019-03-25T01:15:00.661Z,100808.90
2019-03-25T01:16:05.184Z,100816.33
2019-03-25T01:17:09.663Z,100813.73
2019-03-25T01:18:17.049Z,100809.37
2019-03-25T01:19:20.324Z,100807.18
2019-03-25T01:20:24.963Z,100804.15
2019-03-25T01:21:29.466Z,100806.77
2019-03-25T01:22:34.269Z,100795.05
2019-03-25T01:23:38.760Z,100794.17
2019-03-25T01:24:43.232Z,100791.98
2019-03-25T01:25:47.681Z,100785.48
2019-03-25T01:26:53.767Z,100789.37
2019-03-25T01:27:58.521Z,100783.72
2019-03-25T01:29:03.381Z,100780.69
2019-03-25T01:30:09.580Z,100775.48
2019-03-25T01:31:14.046Z,100774.59
2019-03-25T01:32:18.517Z,100772.42
2019-03-25T01:33:22.991Z,100775.02
2019-03-25T01:34:28.424Z,100771.12
2019-03-25T01:35:32.879Z,100763.73
2019-03-25T01:36:37.343Z,100765.91
2019-03-25T01:37:41.825Z,100760.28
2019-03-25T01:38:46.306Z,100759.45
2019-03-25T01:39:50.786Z,100750.76
2019-03-25T01:40:55.248Z,100748.12
2019-03-25T01:41:59.709Z,100749.83
2019-03-25T01:43:04.248Z,100747.27
2019-03-25T01:44:08.731Z,100749.42
2019-03-25T01:45:13.525Z,100752.90
2019-03-25T01:46:17.991Z,100745.51
2019-03-25T01:47:22.453Z,100738.54
2019-03-25T01:48:27.268Z,100736.39
2019-03-25T01:49:31.733Z,100735.92
2019-03-25T01:50:36.605Z,100734.17
2019-03-25T01:51:41.059Z,100740.67
2019-03-25T01:52:45.834Z,100737.24
2019-03-25T01:53:50.317Z,100734.22
2019-03-25T01:54:55.186Z,100734.22
2019-03-25T01:55:59.963Z,100726.41
2019-03-25T01:57:04.724Z,100729.42
2019-03-25T01:58:09.485Z,100725.05
2019-03-25T01:59:13.970Z,100725.05
2019-03-25T02:00:18.509Z,100725.48
2019-03-25T02:01:22.971Z,100726.82
2019-03-25T02:02:27.458Z,100722.92
2019-03-25T02:03:31.939Z,100716.42
2019-03-25T02:04:36.751Z,100716.75
2019-03-25T02:05:41.244Z,100713.30
2019-03-25T02:06:45.666Z,100711.54
2019-03-25T02:07:50.484Z,100707.21
2019-03-25T02:08:55.251Z,100708.47
2019-03-25T02:10:00.200Z,100709.34
2019-03-25T02:11:05.006Z,100705.02
2019-03-25T02:12:09.534Z,100698.48
2019-03-25T02:13:14.002Z,100702.80
2019-03-25T02:14:18.485Z,100698.01
2019-03-25T02:15:22.946Z,100698.42
2019-03-25T02:16:27.409Z,100697.96
2019-03-25T02:17:31.880Z,100697.55
2019-03-25T02:18:36.360Z,100693.17
2019-03-25T02:19:40.848Z,100693.55
2019-03-25T02:20:45.313Z,100690.10
2019-03-25T02:21:50.846Z,100689.62
2019-03-25T02:22:55.470Z,100687.87
2019-03-25T02:24:00.950Z,100688.28
2019-03-25T02:25:08.582Z,100684.33
2019-03-25T02:26:13.057Z,100679.13
2019-03-25T02:27:17.586Z,100678.65
2019-03-25T02:28:22.070Z,100673.40
2019-03-25T02:29:26.572Z,100677.77
2019-03-25T02:30:31.107Z,100676.42
2019-03-25T02:31:35.643Z,100675.58
2019-03-25T02:32:40.485Z,100678.13
2019-03-25T02:33:45.306Z,100675.52
2019-03-25T02:34:49.798Z,100673.75
2019-03-25T02:35:54.275Z,100664.59
2019-03-25T02:36:58.736Z,100666.80
2019-03-25T02:38:03.596Z,100665.02
2019-03-25T02:39:08.083Z,100667.56
2019-03-25T02:40:12.612Z,100661.88
2019-03-25T02:41:18.858Z,100658.87
2019-03-25T02:42:23.266Z,100657.11
2019-03-25T02:43:27.766Z,100652.78
2019-03-25T02:44:32.252Z,100652.78
2019-03-25T02:45:36.731Z,100654.44
2019-03-25T02:46:41.190Z,100649.66
2019-03-25T02:47:45.762Z,100648.77
2019-03-25T02:48:50.194Z,100650.02
2019-03-25T02:49:54.737Z,100645.30
2019-03-25T02:50:59.201Z,100642.22
2019-03-25T02:52:03.679Z,100643.11
2019-03-25T02:53:08.137Z,100642.63
2019-03-25T02:54:12.981Z,100639.63
2019-03-25T02:55:17.840Z,100634.84
2019-03-25T02:56:22.301Z,100630.95
2019-03-25T02:57:26.759Z,100634.84
2019-03-25T02:58:31.273Z,100629.23
2019-03-25T02:59:36.058Z,100624.98
2019-03-25T03:00:40.960Z,100619.78
2019-03-25T03:01:45.488Z,100619.36
2019-03-25T03:02:49.954Z,100615.12
2019-03-25T03:03:54.414Z,100616.46
2019-03-25T03:04:58.999Z,100612.63
2019-03-25T03:06:03.427Z,100610.03
2019-03-25T03:07:07.914Z,100610.49
2019-03-25T03:08:12.386Z,100598.33
2019-03-25T03:09:16.859Z,100599.63
2019-03-25T03:10:21.350Z,100594.42
2019-03-25T03:11:25.817Z,100599.63
2019-03-25T03:12:30.291Z,100592.20
2019-03-25T03:13:34.752Z,100586.53
2019-03-25T03:14:39.222Z,100595.16
2019-03-25T03:15:43.695Z,100598.17
2019-03-25T03:16:48.154Z,100596.39
2019-03-25T03:17:52.629Z,100585.53
2019-03-25T03:18:57.096Z,100591.55
2019-03-25T03:20:01.581Z,100587.66
2019-03-25T03:21:06.095Z,100585.44
2019-03-25T03:22:10.572Z,100585.84
2019-03-25T03:23:15.035Z,100585.78
2019-03-25T03:24:19.500Z,100582.75
2019-03-25T03:25:23.995Z,100582.28
2019-03-25T03:26:28.451Z,100584.00
2019-03-25T03:27:32.914Z,100583.53
2019-03-25T03:28:37.704Z,100576.58
2019-03-25T03:29:42.171Z,100574.39
2019-03-25T03:30:46.988Z,100573.15
2019-03-25T03:31:51.776Z,100574.84
2019-03-25T03:32:56.264Z,100576.58
2019-03-25T03:34:00.790Z,100574.80
2019-03-25T03:35:07.108Z,100575.22
2019-03-25T03:36:11.587Z,100564.88
2019-03-25T03:37:16.071Z,100566.19
2019-03-25T03:38:20.521Z,100563.64
2019-03-25T03:39:25.448Z,100566.23
2019-03-25T03:40:30.309Z,100555.78
2019-03-25T03:41:34.781Z,100555.39
2019-03-25T03:42:39.243Z,100551.07
2019-03-25T03:43:43.712Z,100547.59
2019-03-25T03:44:48.201Z,100547.12
2019-03-25T03:45:52.708Z,100554.96
2019-03-25T03:46:57.201Z,100541.14
2019-03-25T03:48:01.986Z,100545.46
2019-03-25T03:49:06.455Z,100546.36
2019-03-25T03:50:14.184Z,100541.20
2019-03-25T03:51:18.646Z,100536.89
2019-03-25T03:52:23.124Z,100532.13
2019-03-25T03:53:27.587Z,100533.05
2019-03-25T03:54:32.487Z,100530.46
2019-03-25T03:55:39.180Z,100527.49
2019-03-25T03:56:43.786Z,100525.32
2019-03-25T03:57:48.333Z,100524.91
2019-03-25T03:58:53.161Z,100524.48
2019-03-25T03:59:57.913Z,100516.69
2019-03-25T04:01:02.384Z,100519.70
2019-03-25T04:02:07.272Z,100518.39
2019-03-25T04:03:11.773Z,100515.38
2019-03-25T04:04:16.214Z,100512.74
2019-03-25T04:05:22.007Z,100511.45
2019-03-25T04:06:26.499Z,100511.86
2019-03-25T04:07:31.336Z,100507.95
2019-03-25T04:08:35.802Z,100512.70
2019-03-25T04:09:40.327Z,100513.56
2019-03-25T04:10:44.822Z,100508.79
2019-03-25T04:11:49.275Z,100510.56
2019-03-25T04:12:54.077Z,100503.23
2019-03-25T04:13:59.517Z,100509.35
2019-03-25T04:15:06.116Z,100504.59
2019-03-25T04:16:10.579Z,100503.29
2019-03-25T04:17:15.046Z,100496.00
2019-03-25T04:18:19.502Z,100496.42
2019-03-25T04:19:24.328Z,100498.18
2019-03-25T04:20:28.858Z,100496.42
2019-03-25T04:21:33.649Z,100492.56
2019-03-25T04:22:38.109Z,100487.41
2019-03-25T04:23:42.571Z,100483.14
2019-03-25T04:24:47.031Z,100481.00
2019-03-25T04:25:51.926Z,100477.10
2019-03-25T04:26:57.442Z,100481.47
2019-03-25T04:28:01.903Z,100473.70
2019-03-25T04:29:06.383Z,100471.53
2019-03-25T04:30:11.020Z,100459.88
2019-03-25T04:31:15.851Z,100457.73
2019-03-25T04:32:20.317Z,100458.19
2019-03-25T04:33:24.792Z,100455.59
2019-03-25T04:34:29.543Z,100457.34
2019-03-25T04:35:34.015Z,100465.61
2019-03-25T04:36:38.499Z,100459.56
2019-03-25T04:37:43.277Z,100464.80
2019-03-25T04:38:47.741Z,100467.82
2019-03-25T04:39:52.197Z,100459.17
2019-03-25T04:40:56.658Z,100456.57
2019-03-25T04:42:01.166Z,100450.98
2019-03-25T04:43:06.096Z,100447.11
2019-03-25T04:44:10.553Z,100444.97
2019-03-25T04:45:16.087Z,100436.77
2019-03-25T04:46:20.562Z,100441.55
2019-03-25T04:47:25.429Z,100435.50
2019-03-25T04:48:29.893Z,100436.38
2019-03-25T04:49:34.658Z,100431.16
2019-03-25T04:50:39.121Z,100438.13
2019-03-25T04:51:44.885Z,100448.10
2019-03-25T04:52:49.635Z,100434.25
2019-03-25T04:53:54.485Z,100436.42
2019-03-25T04:54:59.266Z,100435.99
2019-03-25T04:56:03.736Z,100428.22
2019-03-25T04:57:09.795Z,100440.83
2019-03-25T04:58:14.412Z,100423.02
2019-03-25T04:59:19.067Z,100421.30
2019-03-25T05:00:37.107Z,100416.97
2019-03-25T05:01:41.885Z,100417.42
2019-03-25T05:02:46.421Z,100416.98
2019-03-25T05:03:51.280Z,100413.09
2019-03-25T05:04:56.027Z,100414.83
2019-03-25T05:06:00.490Z,100413.53
2019-03-25T05:07:05.340Z,100410.95
2019-03-25T05:08:10.933Z,100404.02
2019-03-25T05:09:15.398Z,100407.93
2019-03-25T05:10:19.854Z,100408.36
2019-03-25T05:11:30.535Z,100401.85
2019-03-25T05:12:30.777Z,100401.00
2019-03-25T05:13:35.966Z,100397.09
2019-03-25T05:14:40.710Z,100407.07
2019-03-25T05:15:45.526Z,100398.41
2019-03-25T05:16:49.986Z,100399.71
2019-03-25T05:17:54.621Z,100399.26
2019-03-25T05:18:59.143Z,100397.98
2019-03-25T05:20:04.274Z,100391.02
2019-03-25T05:21:09.019Z,100393.64
2019-03-25T05:22:13.510Z,100387.13
2019-03-25T05:23:18.949Z,100393.64
2019-03-25T05:24:23.838Z,100390.63
2019-03-25T05:25:28.460Z,100387.16
2019-03-25T05:26:32.918Z,100381.95
2019-03-25T05:27:38.784Z,100374.98
2019-03-25T05:28:43.544Z,100375.44
2019-03-25T05:29:48.387Z,100377.58
2019-03-25T05:30:52.972Z,100380.19
2019-03-25T05:31:57.426Z,100378.02
2019-03-25T05:33:02.203Z,100375.44
2019-03-25T05:34:06.738Z,100371.95
2019-03-25T05:35:11.697Z,100378.45
2019-03-25T05:36:16.517Z,100376.73
2019-03-25T05:37:21.146Z,100371.53
2019-03-25T05:38:25.843Z,100370.64
2019-03-25T05:39:30.647Z,100365.02
2019-03-25T05:40:35.397Z,100365.87
2019-03-25T05:41:39.859Z,100364.13
2019-03-25T05:42:44.639Z,100364.56
2019-03-25T05:43:49.099Z,100359.36
2019-03-25T05:44:53.566Z,100355.46
2019-03-25T05:45:58.025Z,100353.73
2019-03-25T05:47:02.491Z,100352.44
2019-03-25T05:48:06.984Z,100352.84
2019-03-25T05:49:12.752Z,100357.64
2019-03-25T05:50:17.226Z,100358.07
2019-03-25T05:51:21.678Z,100357.22
2019-03-25T05:52:26.163Z,100355.02
2019-03-25T05:53:30.646Z,100351.11
2019-03-25T05:54:35.529Z,100346.34
2019-03-25T05:55:41.058Z,100348.96
2019-03-25T05:56:45.787Z,100352.87
2019-03-25T05:57:50.560Z,100351.12
2019-03-25T05:58:55.308Z,100342.45
2019-03-25T05:59:59.773Z,100352.00
2019-03-25T06:01:04.691Z,100352.86
2019-03-25T06:02:09.159Z,100349.34
2019-03-25T06:03:13.641Z,100353.67
2019-03-25T06:04:18.108Z,100345.87
2019-03-25T06:05:22.564Z,100351.90
2019-03-25T06:06:27.052Z,100359.72
2019-03-25T06:07:31.517Z,100356.65
2019-03-25T06:08:36.006Z,100354.89
2019-03-25T06:09:40.467Z,100356.55
2019-03-25T06:10:44.939Z,100367.30
2019-03-25T06:11:49.406Z,100374.23
2019-03-25T06:12:54.289Z,100367.65
2019-03-25T06:13:58.741Z,100368.89
2019-03-25T06:15:04.453Z,100376.63
2019-03-25T06:16:08.926Z,100377.16
2019-03-25T06:17:13.388Z,100373.92
2019-03-25T06:18:20.368Z,100366.31
2019-03-25T06:19:24.054Z,100370.53
2019-03-25T06:20:29.263Z,100371.35
2019-03-25T06:21:33.730Z,100366.34
2019-03-25T06:22:38.176Z,100366.70
2019-03-25T06:23:42.996Z,100366.53
2019-03-25T06:24:47.899Z,100359.16
2019-03-25T06:25:54.299Z,100370.77
2019-03-25T06:26:58.762Z,100370.30
2019-03-25T06:28:03.244Z,100370.65
2019-03-25T06:29:08.230Z,100366.27
2019-03-25T06:30:13.159Z,100367.49
2019-03-25T06:31:17.628Z,100371.44
2019-03-25T06:32:22.130Z,100368.39
2019-03-25T06:33:26.682Z,100360.62
2019-03-25T06:34:31.172Z,100367.16
2019-03-25T06:35:36.011Z,100363.27
2019-03-25T06:36:40.482Z,100366.13
2019-03-25T06:37:44.957Z,100371.74
2019-03-25T06:38:49.456Z,100371.27
2019-03-25T06:39:53.923Z,100364.38
2019-03-25T06:40:58.383Z,100365.66
2019-03-25T06:42:03.231Z,100369.16
2019-03-25T06:43:07.713Z,100370.49
2019-03-25T06:44:12.172Z,100369.63
2019-03-25T06:45:16.714Z,100368.61
2019-03-25T06:46:22.331Z,100370.79
2019-03-25T06:47:26.921Z,100371.72
2019-03-25T06:48:31.403Z,100363.91
2019-03-25T06:49:36.211Z,100374.73
2019-03-25T06:50:40.678Z,100369.83
2019-03-25T06:51:45.415Z,100371.99
2019-03-25T06:52:49.927Z,100374.20
2019-03-25T06:53:54.414Z,100372.07
2019-03-25T06:54:58.878Z,100376.39
2019-03-25T06:56:03.417Z,100370.83
2019-03-25T06:57:07.878Z,100378.90
2019-03-25T06:58:12.343Z,100372.50
2019-03-25T06:59:16.829Z,100378.08
2019-03-25T07:00:21.890Z,100375.47
2019-03-25T07:01:26.802Z,100376.84
2019-03-25T07:02:31.340Z,100378.08
2019-03-25T07:03:35.838Z,100383.27
2019-03-25T07:04:40.287Z,100379.84
2019-03-25T07:05:45.162Z,100377.25
2019-03-25T07:06:49.664Z,100379.45
2019-03-25T07:07:54.186Z,100382.86
2019-03-25T07:09:02.039Z,100384.67
2019-03-25T07:10:07.753Z,100383.38
2019-03-25T07:11:12.291Z,100379.02
2019-03-25T07:12:17.327Z,100382.11
2019-03-25T07:13:22.199Z,100385.64
2019-03-25T07:14:27.476Z,100380.94
2019-03-25T07:15:33.065Z,100380.53
2019-03-25T07:16:37.540Z,100380.11
2019-03-25T07:17:42.353Z,100381.35
2019-03-25T07:18:46.837Z,100383.53
2019-03-25T07:19:54.570Z,100382.70
2019-03-25T07:20:59.040Z,100387.48
2019-03-25T07:22:03.516Z,100384.95
2019-03-25T07:23:08.395Z,100384.96
2019-03-25T07:24:12.937Z,100384.50
2019-03-25T07:25:17.414Z,100384.55
2019-03-25T07:26:21.891Z,100382.83
2019-03-25T07:27:36.270Z,100387.20
2019-03-25T07:28:32.515Z,100382.03
2019-03-25T07:29:37.002Z,100385.56
2019-03-25T07:30:41.471Z,100391.58
2019-03-25T07:31:45.952Z,100385.63
2019-03-25T07:32:50.419Z,100383.09
2019-03-25T07:33:55.248Z,100383.51
2019-03-25T07:35:00.069Z,100386.62
2019-03-25T07:36:05.212Z,100386.27
2019-03-25T07:37:09.678Z,100388.92
2019-03-25T07:38:14.158Z,100385.92
2019-03-25T07:39:19.044Z,100388.56
2019-03-25T07:40:23.512Z,100391.22
2019-03-25T07:41:27.981Z,100389.45
2019-03-25T07:42:32.456Z,100385.21
2019-03-25T07:43:38.207Z,100380.91
2019-03-25T07:44:42.709Z,100384.00
2019-03-25T07:45:47.469Z,100393.57
2019-03-25T07:46:52.262Z,100391.06
2019-03-25T07:47:56.729Z,100391.48
2019-03-25T07:49:01.203Z,100387.64
2019-03-25T07:50:07.904Z,100388.53
2019-03-25T07:51:12.367Z,100387.73
2019-03-25T07:52:16.834Z,100392.09
2019-03-25T07:53:21.301Z,100402.06
2019-03-25T07:54:25.787Z,100396.45
2019-03-25T07:55:30.567Z,100390.39
2019-03-25T07:56:35.354Z,100390.90
2019-03-25T07:57:48.333Z,100393.53
2019-03-25T07:58:45.993Z,100386.63
2019-03-25T07:59:50.491Z,100396.09
2019-03-25T08:00:55.005Z,100393.53
2019-03-25T08:01:59.890Z,100392.23
2019-03-25T08:03:04.547Z,100389.27
2019-03-25T08:04:09.009Z,100393.66
2019-03-25T08:05:13.946Z,100394.08
2019-03-25T08:06:18.415Z,100398.03
2019-03-25T08:07:22.875Z,100396.39
2019-03-25T08:08:27.653Z,100390.80
2019-03-25T08:09:32.148Z,100393.79
2019-03-25T08:10:36.955Z,100394.70
2019-03-25T08:11:41.422Z,100396.01
2019-03-25T08:12:45.883Z,100399.09
2019-03-25T08:13:50.549Z,100396.92
2019-03-25T08:14:55.390Z,100400.05
2019-03-25T08:15:59.849Z,100398.33
2019-03-25T08:17:04.331Z,100393.09
2019-03-25T08:18:09.178Z,100390.56
2019-03-25T08:19:13.654Z,100390.14
2019-03-25T08:20:18.141Z,100400.14
2019-03-25T08:21:24.972Z,100390.20
2019-03-25T08:22:28.750Z,100396.31
2019-03-25T08:23:33.517Z,100398.03
2019-03-25T08:24:37.980Z,100392.41
2019-03-25T08:25:42.772Z,100392.44
2019-03-25T08:26:47.267Z,100392.92
2019-03-25T08:27:59.838Z,100400.33
2019-03-25T08:28:58.335Z,100399.55
2019-03-25T08:30:05.626Z,100394.33
2019-03-25T08:31:11.152Z,100395.64
2019-03-25T08:32:15.608Z,100392.67
2019-03-25T08:33:20.538Z,100398.78
2019-03-25T08:34:25.000Z,100394.02
2019-03-25T08:35:29.484Z,100396.64
2019-03-25T08:36:33.962Z,100399.73
2019-03-25T08:37:38.416Z,100394.94
2019-03-25T08:38:42.875Z,100406.66
2019-03-25T08:39:47.333Z,100397.09
2019-03-25T08:40:51.811Z,100407.48
2019-03-25T08:41:56.570Z,100406.63
2019-03-25T08:43:01.038Z,100407.03
2019-03-25T08:44:05.501Z,100409.64
2019-03-25T08:45:10.490Z,100409.25
2019-03-25T08:46:14.945Z,100410.91
2019-03-25T08:47:19.409Z,100413.53
2019-03-25T08:48:24.223Z,100414.84
2019-03-25T08:49:28.690Z,100410.97
2019-03-25T08:50:33.171Z,100416.20
2019-03-25T08:51:37.629Z,100418.77
2019-03-25T08:52:42.094Z,100414.88
2019-03-25T08:53:46.555Z,100411.84
2019-03-25T08:54:51.316Z,100418.83
2019-03-25T08:55:55.799Z,100410.13
2019-03-25T08:57:00.542Z,100413.62
2019-03-25T08:58:12.050Z,100412.77
2019-03-25T08:59:11.572Z,100407.11
2019-03-25T09:00:16.576Z,100411.48
2019-03-25T09:01:21.350Z,100417.12
2019-03-25T09:02:25.875Z,100417.57
2019-03-25T09:03:30.348Z,100414.56
2019-03-25T09:04:34.800Z,100424.10
2019-03-25T09:05:39.701Z,100419.34
2019-03-25T09:06:44.229Z,100414.13
2019-03-25T09:07:48.713Z,100428.05
2019-03-25T09:08:53.177Z,100421.98
2019-03-25T09:09:57.648Z,100426.30
2019-03-25T09:11:02.492Z,100428.05
2019-03-25T09:12:07.074Z,100426.33
2019-03-25T09:13:11.920Z,100423.73
2019-03-25T09:14:16.374Z,100425.47
2019-03-25T09:15:20.914Z,100423.27
2019-03-25T09:16:25.761Z,100427.64
2019-03-25T09:17:31.289Z,100433.70
2019-03-25T09:18:35.747Z,100430.22
2019-03-25T09:19:40.209Z,100423.73
2019-03-25T09:20:44.760Z,100423.27
2019-03-25T09:21:49.220Z,100421.95
2019-03-25T09:22:53.679Z,100425.86
2019-03-25T09:23:58.808Z,100416.73
2019-03-25T09:25:03.743Z,100428.07
2019-03-25T09:26:09.180Z,100430.20
2019-03-25T09:27:13.640Z,100418.03
2019-03-25T09:28:24.139Z,100427.16
2019-03-25T09:29:24.571Z,100437.19
2019-03-25T09:30:55.054Z,100414.13
2019-03-25T09:31:59.515Z,100427.60
2019-03-25T09:33:04.253Z,100429.35
2019-03-25T09:34:08.783Z,100431.05
2019-03-25T09:35:13.804Z,100434.52
2019-03-25T09:36:19.625Z,100430.11
2019-03-25T09:37:24.101Z,100442.33
2019-03-25T09:38:28.552Z,100433.58
2019-03-25T09:39:33.007Z,100433.13
2019-03-25T09:40:37.496Z,100433.53
2019-03-25T09:41:43.229Z,100439.60
2019-03-25T09:42:47.684Z,100434.81
2019-03-25T09:43:52.207Z,100440.48
2019-03-25T09:44:56.665Z,100445.20
2019-03-25T09:46:01.159Z,100443.02
2019-03-25T09:47:05.604Z,100445.17
2019-03-25T09:48:10.062Z,100446.45
2019-03-25T09:49:15.916Z,100448.57
2019-03-25T09:50:20.443Z,100448.91
2019-03-25T09:51:24.934Z,100451.52
2019-03-25T09:52:38.109Z,100449.88
2019-03-25T09:53:35.939Z,100452.47
2019-03-25T09:54:40.410Z,100451.27
2019-03-25T09:55:44.863Z,100459.41
2019-03-25T09:56:49.348Z,100455.89
2019-03-25T09:57:53.805Z,100461.15
2019-03-25T09:58:58.269Z,100463.78
2019-03-25T10:00:03.262Z,100464.63
2019-03-25T10:01:07.802Z,100470.16
2019-03-25T10:02:12.680Z,100456.75
2019-03-25T10:03:17.199Z,100462.92
2019-03-25T10:04:21.954Z,100462.95
2019-03-25T10:05:26.409Z,100460.77
2019-03-25T10:06:31.313Z,100460.63
2019-03-25T10:07:35.766Z,100459.39
2019-03-25T10:08:40.519Z,100465.45
2019-03-25T10:09:45.300Z,100462.88
2019-03-25T10:10:50.049Z,100461.13
2019-03-25T10:11:54.907Z,100470.68
2019-03-25T10:12:59.373Z,100464.13
2019-03-25T10:14:04.811Z,100463.41
2019-03-25T10:15:10.029Z,100466.03
2019-03-25T10:16:14.606Z,100472.52
2019-03-25T10:17:19.085Z,100472.13
2019-03-25T10:18:23.541Z,100472.59
2019-03-25T10:19:28.002Z,100472.12
2019-03-25T10:20:32.698Z,100475.25
2019-03-25T10:21:38.285Z,100482.72
2019-03-25T10:22:43.215Z,100476.59
2019-03-25T10:23:47.729Z,100492.64
2019-03-25T10:24:52.155Z,100490.03
2019-03-25T10:25:56.680Z,100485.66
2019-03-25T10:27:01.163Z,100487.80
2019-03-25T10:28:05.609Z,100489.92
2019-03-25T10:29:10.061Z,100498.62
2019-03-25T10:30:16.563Z,100488.97
2019-03-25T10:31:21.031Z,100496.00
2019-03-25T10:32:25.580Z,100492.06
2019-03-25T10:33:30.030Z,100495.91
2019-03-25T10:34:34.514Z,100495.81
2019-03-25T10:35:39.272Z,100495.31
2019-03-25T10:36:44.050Z,100490.54
2019-03-25T10:37:48.563Z,100497.91
2019-03-25T10:38:53.350Z,100491.80
2019-03-25T10:39:57.809Z,100493.55
2019-03-25T10:41:02.569Z,100493.47
2019-03-25T10:42:07.050Z,100489.48
2019-03-25T10:43:16.443Z,100491.84
2019-03-25T10:44:22.522Z,100489.31
2019-03-25T10:45:26.975Z,100488.30
2019-03-25T10:46:31.428Z,100496.42
2019-03-25T10:47:35.905Z,100497.02
2019-03-25T10:48:40.362Z,100500.14
2019-03-25T10:49:45.141Z,100502.19
2019-03-25T10:50:49.960Z,100498.64
2019-03-25T10:51:54.418Z,100495.66
2019-03-25T10:52:58.903Z,100494.65
2019-03-25T10:54:03.357Z,100491.37
2019-03-25T10:55:08.185Z,100492.33
2019-03-25T10:56:12.610Z,100484.59
2019-03-25T10:57:17.369Z,100489.59
2019-03-25T10:58:21.915Z,100492.73
2019-03-25T10:59:26.707Z,100479.36
2019-03-25T11:00:31.172Z,100484.57
2019-03-25T11:01:35.697Z,100481.73
2019-03-25T11:02:40.462Z,100485.60
2019-03-25T11:03:44.939Z,100487.94
2019-03-25T11:04:49.387Z,100490.20
2019-03-25T11:05:53.874Z,100491.61
2019-03-25T11:06:58.332Z,100491.55
2019-03-25T11:08:02.816Z,100495.52
2019-03-25T11:09:07.818Z,100487.45
2019-03-25T11:10:14.357Z,100498.21
2019-03-25T11:11:19.094Z,100499.59
2019-03-25T11:12:23.849Z,100497.57
2019-03-25T11:13:28.325Z,100498.45
2019-03-25T11:14:32.789Z,100506.72
2019-03-25T11:15:37.388Z,100500.77
2019-03-25T11:16:41.837Z,100509.20
2019-03-25T11:17:46.614Z,100513.52
2019-03-25T11:18:51.067Z,100511.76
2019-03-25T11:19:55.887Z,100521.45
2019-03-25T11:21:00.643Z,100523.26
2019-03-25T11:22:05.610Z,100535.45
2019-03-25T11:23:10.084Z,100536.30
2019-03-25T11:24:15.254Z,100533.24
2019-03-25T11:25:19.855Z,100536.25
2019-03-25T11:26:24.613Z,100532.77
2019-03-25T11:27:29.056Z,100525.41
2019-03-25T11:28:33.541Z,100526.70
2019-03-25T11:29:38.288Z,100511.91
2019-03-25T11:30:54.781Z,100509.76
2019-03-25T11:31:59.596Z,100506.29
2019-03-25T11:33:04.072Z,100501.08
2019-03-25T11:34:08.526Z,100498.47
2019-03-25T11:35:13.539Z,100503.72
2019-03-25T11:36:17.994Z,100508.06
2019-03-25T11:37:22.463Z,100501.52
2019-03-25T11:38:27.248Z,100504.97
2019-03-25T11:39:31.699Z,100504.95
2019-03-25T11:40:36.453Z,100506.66
2019-03-25T11:41:40.938Z,100511.81
2019-03-25T11:42:45.382Z,100509.45
2019-03-25T11:43:49.869Z,100510.91
2019-03-25T11:44:55.299Z,100506.38
2019-03-25T11:45:59.756Z,100501.41
2019-03-25T11:47:04.216Z,100492.33
2019-03-25T11:48:08.681Z,100495.45
2019-03-25T11:49:13.175Z,100495.84
2019-03-25T11:50:19.314Z,100486.28
2019-03-25T11:51:25.554Z,100490.07
2019-03-25T11:52:30.415Z,100488.81
2019-03-25T11:53:35.338Z,100494.98
2019-03-25T11:54:39.792Z,100486.06
2019-03-25T11:55:45.300Z,100491.80
2019-03-25T11:56:49.751Z,100488.30
2019-03-25T11:57:54.203Z,100484.41
2019-03-25T11:58:58.683Z,100483.94
2019-03-25T12:00:03.140Z,100482.80
2019-03-25T12:01:07.670Z,100486.09
2019-03-25T12:02:17.538Z,100490.38
2019-03-25T12:03:18.291Z,100490.56
2019-03-25T12:04:22.859Z,100482.84
2019-03-25T12:05:27.318Z,100492.92
2019-03-25T12:06:32.868Z,100491.55
2019-03-25T12:07:37.326Z,100493.47
2019-03-25T12:08:42.095Z,100488.04
2019-03-25T12:09:47.531Z,100483.86
2019-03-25T12:10:52.050Z,100484.41
2019-03-25T12:11:56.514Z,100483.21
2019-03-25T12:13:01.326Z,100486.95
2019-03-25T12:14:06.017Z,100492.70
2019-03-25T12:15:11.546Z,100486.77
2019-03-25T12:16:16.360Z,100483.39
2019-03-25T12:17:20.837Z,100498.20
2019-03-25T12:18:25.283Z,100488.23
2019-03-25T12:19:29.760Z,100489.47